sensor_id;sensor_type;location;lat;lon;timestamp;pressure;altitude;pressure_sealevel;temperature;humidity
46724;BME280;32463;48.298;11.620;2023-04-27T00:01:48;96363.78;;;5.46;100.00
46724;BME280;32463;48.298;11.620;2023-04-27T00:04:15;96367.16;;;5.46;100.00
46724;BME280;32463;48.298;11.620;2023-04-27T00:06:42;96358.19;;;5.40;100.00
46724;BME280;32463;48.298;11.620;2023-04-27T00:09:08;96364.97;;;5.41;100.00
46724;BME280;32463;48.298;11.620;2023-04-27T00:11:35;96361.13;;;5.36;100.00
46724;BME280;32463;48.298;11.620;2023-04-27T00:14:02;96367.09;;;5.36;100.00
46724;BME280;32463;48.298;11.620;2023-04-27T00:16:28;96366.84;;;5.39;100.00
46724;BME280;32463;48.298;11.620;2023-04-27T00:18:55;96364.97;;;5.41;100.00
46724;BME280;32463;48.298;11.620;2023-04-27T00:21:21;96357.94;;;5.44;100.00
46724;BME280;32463;48.298;11.620;2023-04-27T00:23:48;96366.09;;;5.49;100.00
46724;BME280;32463;48.298;11.620;2023-04-27T00:26:14;96362.84;;;5.47;100.00
46724;BME280;32463;48.298;11.620;2023-04-27T00:28:41;96362.84;;;5.47;100.00
46724;BME280;32463;48.298;11.620;2023-04-27T00:31:08;96352.81;;;5.44;100.00
46724;BME280;32463;48.298;11.620;2023-04-27T00:33:34;96352.81;;;5.44;100.00
46724;BME280;32463;48.298;11.620;2023-04-27T00:36:01;96362.16;;;5.45;100.00
46724;BME280;32463;48.298;11.620;2023-04-27T00:38:28;96361.19;;;5.46;100.00
46724;BME280;32463;48.298;11.620;2023-04-27T00:41:05;96360.25;;;5.47;100.00
46724;BME280;32463;48.298;11.620;2023-04-27T00:43:39;96353.91;;;5.51;100.00
46724;BME280;32463;48.298;11.620;2023-04-27T00:46:07;96366.91;;;5.49;100.00
46724;BME280;32463;48.298;11.620;2023-04-27T00:48:34;96359.03;;;5.51;100.00
46724;BME280;32463;48.298;11.620;2023-04-27T00:51:00;96359.19;;;5.49;100.00
46724;BME280;32463;48.298;11.620;2023-04-27T00:53:27;96359.31;;;5.48;100.00
46724;BME280;32463;48.298;11.620;2023-04-27T00:55:54;96357.25;;;5.41;100.00
46724;BME280;32463;48.298;11.620;2023-04-27T00:58:21;96358.19;;;5.40;100.00
46724;BME280;32463;48.298;11.620;2023-04-27T01:00:48;96354.94;;;5.38;100.00
46724;BME280;32463;48.298;11.620;2023-04-27T01:03:15;96351.91;;;5.33;100.00
46724;BME280;32463;48.298;11.620;2023-04-27T01:05:42;96355.69;;;5.29;100.00
46724;BME280;32463;48.298;11.620;2023-04-27T01:08:09;96356.63;;;5.28;100.00
46724;BME280;32463;48.298;11.620;2023-04-27T01:10:35;96362.69;;;5.27;100.00
46724;BME280;32463;48.298;11.620;2023-04-27T01:13:02;96358.38;;;5.28;100.00
46724;BME280;32463;48.298;11.620;2023-04-27T01:15:31;96356.16;;;5.23;100.00
46724;BME280;32463;48.298;11.620;2023-04-27T01:17:59;96358.88;;;5.22;100.00
46724;BME280;32463;48.298;11.620;2023-04-27T01:20:26;96357.22;;;5.21;100.00
46724;BME280;32463;48.298;11.620;2023-04-27T01:22:57;96354.81;;;5.19;100.00
46724;BME280;32463;48.298;11.620;2023-04-27T01:25:24;96351.03;;;5.23;100.00
46724;BME280;32463;48.298;11.620;2023-04-27T01:27:53;96351.03;;;5.23;100.00
46724;BME280;32463;48.298;11.620;2023-04-27T01:30:20;96351.03;;;5.23;100.00
46724;BME280;32463;48.298;11.620;2023-04-27T01:32:47;96361.31;;;5.23;100.00
46724;BME280;32463;48.298;11.620;2023-04-27T01:35:14;96364.81;;;5.22;100.00
46724;BME280;32463;48.298;11.620;2023-04-27T01:37:41;96363.75;;;5.25;100.00
46724;BME280;32463;48.298;11.620;2023-04-27T01:40:08;96362.38;;;5.21;100.00
46724;BME280;32463;48.298;11.620;2023-04-27T01:42:35;96345.16;;;5.12;100.00
46724;BME280;32463;48.298;11.620;2023-04-27T01:45:02;96364.66;;;5.14;100.00
46724;BME280;32463;48.298;11.620;2023-04-27T01:47:29;96364.41;;;5.17;100.00
46724;BME280;32463;48.298;11.620;2023-04-27T01:49:55;96365.34;;;5.16;100.00
46724;BME280;32463;48.298;11.620;2023-04-27T01:52:22;96371.84;;;5.20;100.00
46724;BME280;32463;48.298;11.620;2023-04-27T01:54:48;96368.97;;;5.14;100.00
46724;BME280;32463;48.298;11.620;2023-04-27T01:57:15;96361.38;;;5.12;100.00
46724;BME280;32463;48.298;11.620;2023-04-27T01:59:41;96376.22;;;5.08;100.00
46724;BME280;32463;48.298;11.620;2023-04-27T02:02:08;96370.28;;;5.08;100.00
46724;BME280;32463;48.298;11.620;2023-04-27T02:04:34;96370.41;;;5.06;100.00
46724;BME280;32463;48.298;11.620;2023-04-27T02:07:01;96366.06;;;5.07;100.00
46724;BME280;32463;48.298;11.620;2023-04-27T02:09:28;96361.06;;;5.05;100.00
46724;BME280;32463;48.298;11.620;2023-04-27T02:11:54;96366.56;;;5.01;100.00
46724;BME280;32463;48.298;11.620;2023-04-27T02:14:21;96366.34;;;4.93;100.00
46724;BME280;32463;48.298;11.620;2023-04-27T02:16:47;96362.44;;;4.89;100.00
46724;BME280;32463;48.298;11.620;2023-04-27T02:19:14;96365.72;;;4.80;100.00
46724;BME280;32463;48.298;11.620;2023-04-27T02:21:40;96364.09;;;4.79;100.00
46724;BME280;32463;48.298;11.620;2023-04-27T02:24:08;96377.19;;;4.76;100.00
46724;BME280;32463;48.298;11.620;2023-04-27T02:26:34;96375.06;;;4.81;100.00
46724;BME280;32463;48.298;11.620;2023-04-27T02:29:01;96377.28;;;4.85;100.00
46724;BME280;32463;48.298;11.620;2023-04-27T02:31:27;96378.31;;;4.83;100.00
46724;BME280;32463;48.298;11.620;2023-04-27T02:33:54;96381.72;;;4.72;100.00
46724;BME280;32463;48.298;11.620;2023-04-27T02:36:20;96383.25;;;4.63;100.00
46724;BME280;32463;48.298;11.620;2023-04-27T02:38:47;96376.19;;;4.56;100.00
46724;BME280;32463;48.298;11.620;2023-04-27T02:41:13;96377.97;;;4.44;100.00
46724;BME280;32463;48.298;11.620;2023-04-27T02:43:39;96373.06;;;4.30;100.00
46724;BME280;32463;48.298;11.620;2023-04-27T02:46:06;96379.28;;;4.16;100.00
46724;BME280;32463;48.298;11.620;2023-04-27T02:48:34;96372.19;;;3.97;100.00
46724;BME280;32463;48.298;11.620;2023-04-27T02:51:03;96374.16;;;3.94;100.00
46724;BME280;32463;48.298;11.620;2023-04-27T02:53:31;96376.84;;;3.81;100.00
46724;BME280;32463;48.298;11.620;2023-04-27T02:55:57;96371.91;;;3.67;100.00
46724;BME280;32463;48.298;11.620;2023-04-27T02:58:24;96382.19;;;3.56;100.00
46724;BME280;32463;48.298;11.620;2023-04-27T03:00:54;96385.66;;;3.55;100.00
46724;BME280;32463;48.298;11.620;2023-04-27T03:03:21;96385.41;;;3.47;100.00
46724;BME280;32463;48.298;11.620;2023-04-27T03:05:48;96385.16;;;3.38;100.00
46724;BME280;32463;48.298;11.620;2023-04-27T03:08:14;96394.69;;;3.36;100.00
46724;BME280;32463;48.298;11.620;2023-04-27T03:10:41;96385.38;;;3.24;100.00
46724;BME280;32463;48.298;11.620;2023-04-27T03:13:08;96388.50;;;3.17;100.00
46724;BME280;32463;48.298;11.620;2023-04-27T03:15:34;96381.72;;;3.16;100.00
46724;BME280;32463;48.298;11.620;2023-04-27T03:18:01;96388.94;;;3.11;100.00
46724;BME280;32463;48.298;11.620;2023-04-27T03:20:27;96382.63;;;3.03;100.00
46724;BME280;32463;48.298;11.620;2023-04-27T03:22:53;96385.53;;;2.99;100.00
46724;BME280;32463;48.298;11.620;2023-04-27T03:25:20;96397.84;;;2.94;100.00
46724;BME280;32463;48.298;11.620;2023-04-27T03:27:46;96395.50;;;2.91;100.00
46724;BME280;32463;48.298;11.620;2023-04-27T03:30:13;96391.09;;;2.93;100.00
46724;BME280;32463;48.298;11.620;2023-04-27T03:32:40;96401.53;;;2.90;100.00
46724;BME280;32463;48.298;11.620;2023-04-27T03:35:07;96400.13;;;2.86;100.00
46724;BME280;32463;48.298;11.620;2023-04-27T03:37:33;96397.88;;;2.81;100.00
46724;BME280;32463;48.298;11.620;2023-04-27T03:40:02;96405.69;;;2.80;100.00
46724;BME280;32463;48.298;11.620;2023-04-27T03:42:31;96406.97;;;2.74;100.00
46724;BME280;32463;48.298;11.620;2023-04-27T03:44:58;96412.28;;;2.71;100.00
46724;BME280;32463;48.298;11.620;2023-04-27T03:47:24;96410.34;;;2.75;100.00
46724;BME280;32463;48.298;11.620;2023-04-27T03:49:51;96405.53;;;2.70;100.00
46724;BME280;32463;48.298;11.620;2023-04-27T03:52:18;96413.53;;;2.65;100.00
46724;BME280;32463;48.298;11.620;2023-04-27T03:54:44;96413.75;;;2.62;100.00
46724;BME280;32463;48.298;11.620;2023-04-27T03:57:11;96408.63;;;2.62;100.00
46724;BME280;32463;48.298;11.620;2023-04-27T03:59:37;96412.09;;;2.61;100.00
46724;BME280;32463;48.298;11.620;2023-04-27T04:02:04;96419.19;;;2.58;100.00
46724;BME280;32463;48.298;11.620;2023-04-27T04:04:30;96418.91;;;2.50;100.00
46724;BME280;32463;48.298;11.620;2023-04-27T04:06:57;96432.19;;;2.55;100.00
46724;BME280;32463;48.298;11.620;2023-04-27T04:09:24;96440.06;;;2.64;100.00
46724;BME280;32463;48.298;11.620;2023-04-27T04:11:51;96437.78;;;2.73;100.00
46724;BME280;32463;48.298;11.620;2023-04-27T04:14:18;96442.22;;;2.82;100.00
46724;BME280;32463;48.298;11.620;2023-04-27T04:16:44;96439.41;;;2.97;100.00
46724;BME280;32463;48.298;11.620;2023-04-27T04:19:12;96440.97;;;3.11;100.00
46724;BME280;32463;48.298;11.620;2023-04-27T04:21:39;96447.66;;;3.25;100.00
46724;BME280;32463;48.298;11.620;2023-04-27T04:24:06;96445.72;;;3.39;100.00
46724;BME280;32463;48.298;11.620;2023-04-27T04:26:34;96453.00;;;3.57;100.00
46724;BME280;32463;48.298;11.620;2023-04-27T04:29:01;96451.06;;;3.71;100.00
46724;BME280;32463;48.298;11.620;2023-04-27T04:31:29;96447.38;;;3.87;100.00
46724;BME280;32463;48.298;11.620;2023-04-27T04:33:59;96451.44;;;4.00;100.00
46724;BME280;32463;48.298;11.620;2023-04-27T04:36:27;96447.97;;;4.13;100.00
46724;BME280;32463;48.298;11.620;2023-04-27T04:38:55;96457.75;;;4.30;100.00
46724;BME280;32463;48.298;11.620;2023-04-27T04:41:22;96460.31;;;4.41;100.00
46724;BME280;32463;48.298;11.620;2023-04-27T04:43:49;96448.91;;;4.45;100.00
46724;BME280;32463;48.298;11.620;2023-04-27T04:46:16;96461.63;;;4.58;100.00
46724;BME280;32463;48.298;11.620;2023-04-27T04:48:43;96451.41;;;4.67;100.00
46724;BME280;32463;48.298;11.620;2023-04-27T04:51:10;96453.97;;;4.79;100.00
46724;BME280;32463;48.298;11.620;2023-04-27T04:53:36;96450.69;;;4.88;100.00
46724;BME280;32463;48.298;11.620;2023-04-27T04:56:10;96446.81;;;4.93;100.00
46724;BME280;32463;48.298;11.620;2023-04-27T04:58:37;96457.19;;;5.03;100.00
46724;BME280;32463;48.298;11.620;2023-04-27T05:01:05;96451.09;;;5.04;100.00
46724;BME280;32463;48.298;11.620;2023-04-27T05:03:31;96463.22;;;5.13;100.00
46724;BME280;32463;48.298;11.620;2023-04-27T05:05:58;96459.78;;;5.24;100.00
46724;BME280;32463;48.298;11.620;2023-04-27T05:08:24;96464.09;;;5.34;100.00
46724;BME280;32463;48.298;11.620;2023-04-27T05:10:51;96467.72;;;5.53;100.00
46724;BME280;32463;48.298;11.620;2023-04-27T05:13:19;96468.19;;;5.58;100.00
46724;BME280;32463;48.298;11.620;2023-04-27T05:15:45;96464.75;;;5.68;100.00
46724;BME280;32463;48.298;11.620;2023-04-27T05:18:12;96469.97;;;5.78;100.00
46724;BME280;32463;48.298;11.620;2023-04-27T05:20:39;96466.94;;;5.73;100.00
46724;BME280;32463;48.298;11.620;2023-04-27T05:23:05;96471.19;;;5.84;100.00
46724;BME280;32463;48.298;11.620;2023-04-27T05:25:32;96466.97;;;5.83;100.00
46724;BME280;32463;48.298;11.620;2023-04-27T05:27:59;96471.66;;;5.89;100.00
46724;BME280;32463;48.298;11.620;2023-04-27T05:30:25;96465.88;;;5.96;100.00
46724;BME280;32463;48.298;11.620;2023-04-27T05:32:52;96469.75;;;6.12;100.00
46724;BME280;32463;48.298;11.620;2023-04-27T05:35:18;96466.16;;;6.24;100.00
46724;BME280;32463;48.298;11.620;2023-04-27T05:37:45;96466.84;;;6.26;100.00
46724;BME280;32463;48.298;11.620;2023-04-27T05:40:13;96466.03;;;6.25;100.00
46724;BME280;32463;48.298;11.620;2023-04-27T05:42:40;96477.06;;;6.37;100.00
46724;BME280;32463;48.298;11.620;2023-04-27T05:45:07;96475.78;;;6.52;100.00
46724;BME280;32463;48.298;11.620;2023-04-27T05:47:33;96482.56;;;6.53;100.00
46724;BME280;32463;48.298;11.620;2023-04-27T05:50:00;96486.16;;;6.71;100.00
46724;BME280;32463;48.298;11.620;2023-04-27T05:52:27;96487.78;;;6.72;100.00
46724;BME280;32463;48.298;11.620;2023-04-27T05:54:55;96497.81;;;6.75;100.00
46724;BME280;32463;48.298;11.620;2023-04-27T05:57:22;96485.13;;;6.93;100.00
46724;BME280;32463;48.298;11.620;2023-04-27T05:59:49;96489.06;;;7.07;100.00
46724;BME280;32463;48.298;11.620;2023-04-27T06:02:17;96493.59;;;7.24;100.00
46724;BME280;32463;48.298;11.620;2023-04-27T06:04:44;96490.06;;;7.25;100.00
46724;BME280;32463;48.298;11.620;2023-04-27T06:07:14;96478.66;;;7.28;100.00
46724;BME280;32463;48.298;11.620;2023-04-27T06:09:41;96487.91;;;7.50;100.00
46724;BME280;32463;48.298;11.620;2023-04-27T06:12:08;96490.09;;;7.64;100.00
46724;BME280;32463;48.298;11.620;2023-04-27T06:14:36;96489.66;;;7.59;100.00
46724;BME280;32463;48.298;11.620;2023-04-27T06:17:03;96493.44;;;7.74;100.00
46724;BME280;32463;48.298;11.620;2023-04-27T06:19:30;96473.47;;;7.76;100.00
46724;BME280;32463;48.298;11.620;2023-04-27T06:21:56;96469.91;;;7.96;100.00
46724;BME280;32463;48.298;11.620;2023-04-27T06:24:22;96473.00;;;8.19;100.00
46724;BME280;32463;48.298;11.620;2023-04-27T06:26:49;96477.44;;;8.36;100.00
46724;BME280;32463;48.298;11.620;2023-04-27T06:29:15;96474.44;;;8.41;100.00
46724;BME280;32463;48.298;11.620;2023-04-27T06:31:42;96483.69;;;8.43;100.00
46724;BME280;32463;48.298;11.620;2023-04-27T06:34:08;96489.78;;;8.52;100.00
46724;BME280;32463;48.298;11.620;2023-04-27T06:36:35;96489.13;;;8.31;100.00
46724;BME280;32463;48.298;11.620;2023-04-27T06:39:02;96489.31;;;8.66;100.00
46724;BME280;32463;48.298;11.620;2023-04-27T06:41:29;96507.22;;;8.77;100.00
46724;BME280;32463;48.298;11.620;2023-04-27T06:43:56;96507.50;;;8.74;100.00
46724;BME280;32463;48.298;11.620;2023-04-27T06:46:22;96494.81;;;9.08;100.00
46724;BME280;32463;48.298;11.620;2023-04-27T06:48:49;96486.03;;;8.92;100.00
46724;BME280;32463;48.298;11.620;2023-04-27T06:51:15;96483.38;;;9.11;100.00
46724;BME280;32463;48.298;11.620;2023-04-27T06:53:42;96486.34;;;9.34;100.00
46724;BME280;32463;48.298;11.620;2023-04-27T06:56:10;96493.00;;;9.72;100.00
46724;BME280;32463;48.298;11.620;2023-04-27T06:58:37;96487.94;;;9.88;97.92
46724;BME280;32463;48.298;11.620;2023-04-27T07:01:03;96490.44;;;9.80;100.00
46724;BME280;32463;48.298;11.620;2023-04-27T07:03:33;96485.72;;;9.93;100.00
46724;BME280;32463;48.298;11.620;2023-04-27T07:06:00;96491.31;;;10.06;100.00
46724;BME280;32463;48.298;11.620;2023-04-27T07:08:26;96496.63;;;10.23;100.00
46724;BME280;32463;48.298;11.620;2023-04-27T07:10:52;96497.00;;;10.62;99.70
46724;BME280;32463;48.298;11.620;2023-04-27T07:13:20;96489.34;;;10.52;95.35
46724;BME280;32463;48.298;11.620;2023-04-27T07:15:47;96488.88;;;10.57;98.78
46724;BME280;32463;48.298;11.620;2023-04-27T07:18:13;96493.56;;;10.53;96.53
46724;BME280;32463;48.298;11.620;2023-04-27T07:20:40;96495.84;;;10.56;99.67
46724;BME280;32463;48.298;11.620;2023-04-27T07:23:06;96486.56;;;10.45;94.52
46724;BME280;32463;48.298;11.620;2023-04-27T07:25:33;96493.91;;;10.58;87.36
46724;BME280;32463;48.298;11.620;2023-04-27T07:28:00;96493.91;;;10.58;89.04
46724;BME280;32463;48.298;11.620;2023-04-27T07:30:26;96485.38;;;10.74;88.81
46724;BME280;32463;48.298;11.620;2023-04-27T07:32:54;96486.69;;;10.36;90.03
46724;BME280;32463;48.298;11.620;2023-04-27T07:35:21;96493.16;;;10.66;91.29
46724;BME280;32463;48.298;11.620;2023-04-27T07:37:48;96494.94;;;11.16;90.30
46724;BME280;32463;48.298;11.620;2023-04-27T07:40:15;96496.88;;;11.13;93.34
46724;BME280;32463;48.298;11.620;2023-04-27T07:42:42;96495.19;;;11.46;95.76
46724;BME280;32463;48.298;11.620;2023-04-27T07:45:10;96492.94;;;11.60;91.83
46724;BME280;32463;48.298;11.620;2023-04-27T07:47:37;96490.19;;;11.61;80.33
46724;BME280;32463;48.298;11.620;2023-04-27T07:50:05;96492.31;;;11.82;79.99
46724;BME280;32463;48.298;11.620;2023-04-27T07:52:32;96490.03;;;12.20;74.65
46724;BME280;32463;48.298;11.620;2023-04-27T07:54:59;96492.91;;;12.25;76.61
46724;BME280;32463;48.298;11.620;2023-04-27T07:57:25;96493.00;;;12.72;76.46
46724;BME280;32463;48.298;11.620;2023-04-27T07:59:52;96487.22;;;12.93;68.67
46724;BME280;32463;48.298;11.620;2023-04-27T08:02:18;96493.69;;;12.97;64.15
46724;BME280;32463;48.298;11.620;2023-04-27T08:04:45;96501.47;;;13.05;60.85
46724;BME280;32463;48.298;11.620;2023-04-27T08:07:12;96492.97;;;13.19;60.28
46724;BME280;32463;48.298;11.620;2023-04-27T08:09:38;96493.03;;;13.03;56.65
46724;BME280;32463;48.298;11.620;2023-04-27T08:12:05;96492.22;;;12.55;58.90
46724;BME280;32463;48.298;11.620;2023-04-27T08:14:35;96500.06;;;12.86;58.73
46724;BME280;32463;48.298;11.620;2023-04-27T08:17:02;96504.97;;;12.09;61.03
46724;BME280;32463;48.298;11.620;2023-04-27T08:19:28;96503.47;;;12.31;62.31
46724;BME280;32463;48.298;11.620;2023-04-27T08:21:55;96501.41;;;12.10;65.50
46724;BME280;32463;48.298;11.620;2023-04-27T08:24:21;96507.22;;;12.29;60.83
46724;BME280;32463;48.298;11.620;2023-04-27T08:26:47;96508.81;;;12.46;55.38
46724;BME280;32463;48.298;11.620;2023-04-27T08:29:14;96513.44;;;12.83;53.88
46724;BME280;32463;48.298;11.620;2023-04-27T08:31:40;96504.94;;;12.50;54.16
46724;BME280;32463;48.298;11.620;2023-04-27T08:34:07;96506.31;;;12.69;55.21
46724;BME280;32463;48.298;11.620;2023-04-27T08:36:34;96504.31;;;13.26;54.34
46724;BME280;32463;48.298;11.620;2023-04-27T08:39:00;96496.06;;;13.45;53.77
46724;BME280;32463;48.298;11.620;2023-04-27T08:41:29;96498.44;;;13.78;52.66
46724;BME280;32463;48.298;11.620;2023-04-27T08:43:57;96497.47;;;13.79;53.21
46724;BME280;32463;48.298;11.620;2023-04-27T08:46:24;96493.88;;;13.80;54.06
46724;BME280;32463;48.298;11.620;2023-04-27T08:48:52;96496.44;;;13.42;55.28
46724;BME280;32463;48.298;11.620;2023-04-27T08:51:20;96498.22;;;13.42;57.35
46724;BME280;32463;48.298;11.620;2023-04-27T08:53:49;96496.59;;;13.41;56.89
46724;BME280;32463;48.298;11.620;2023-04-27T08:56:17;96499.03;;;13.65;56.36
46724;BME280;32463;48.298;11.620;2023-04-27T08:58:43;96504.53;;;14.31;53.10
46724;BME280;32463;48.298;11.620;2023-04-27T09:01:10;96498.75;;;14.21;53.99
46724;BME280;32463;48.298;11.620;2023-04-27T09:03:37;96498.91;;;14.71;52.66
46724;BME280;32463;48.298;11.620;2023-04-27T09:06:04;96500.72;;;14.19;54.30
46724;BME280;32463;48.298;11.620;2023-04-27T09:08:41;96495.72;;;14.32;54.76
46724;BME280;32463;48.298;11.620;2023-04-27T09:11:08;96494.88;;;14.54;52.02
46724;BME280;32463;48.298;11.620;2023-04-27T09:13:35;96491.91;;;14.87;52.37
46724;BME280;32463;48.298;11.620;2023-04-27T09:16:02;96481.16;;;15.11;52.97
46724;BME280;32463;48.298;11.620;2023-04-27T09:18:29;96474.03;;;15.56;50.26
46724;BME280;32463;48.298;11.620;2023-04-27T09:20:59;96485.97;;;15.65;51.16
46724;BME280;32463;48.298;11.620;2023-04-27T09:23:37;96484.84;;;15.53;51.16
46724;BME280;32463;48.298;11.620;2023-04-27T09:26:05;96479.03;;;15.72;49.54
46724;BME280;32463;48.298;11.620;2023-04-27T09:28:37;96472.91;;;16.35;50.07
46724;BME280;32463;48.298;11.620;2023-04-27T09:31:04;96466.47;;;15.82;48.25
46724;BME280;32463;48.298;11.620;2023-04-27T09:33:34;96465.94;;;15.93;50.40
46724;BME280;32463;48.298;11.620;2023-04-27T09:36:02;96470.63;;;15.40;50.95
46724;BME280;32463;48.298;11.620;2023-04-27T09:38:30;96467.91;;;15.48;49.29
46724;BME280;32463;48.298;11.620;2023-04-27T09:40:57;96469.00;;;15.39;49.80
46724;BME280;32463;48.298;11.620;2023-04-27T09:43:24;96464.13;;;15.15;51.76
46724;BME280;32463;48.298;11.620;2023-04-27T09:45:53;96462.28;;;14.79;52.00
46724;BME280;32463;48.298;11.620;2023-04-27T09:48:22;96457.09;;;15.52;50.91
46724;BME280;32463;48.298;11.620;2023-04-27T09:50:50;96465.47;;;15.83;49.04
46724;BME280;32463;48.298;11.620;2023-04-27T09:53:25;96462.13;;;16.17;50.67
46724;BME280;32463;48.298;11.620;2023-04-27T09:56:10;96454.53;;;16.01;47.82
46724;BME280;32463;48.298;11.620;2023-04-27T10:01:38;96460.44;;;16.09;47.06
46724;BME280;32463;48.298;11.620;2023-04-27T10:07:05;96451.50;;;15.55;48.25
46724;BME280;32463;48.298;11.620;2023-04-27T10:09:39;96448.00;;;14.75;49.77
46724;BME280;32463;48.298;11.620;2023-04-27T10:15:09;96449.53;;;14.55;50.82
46724;BME280;32463;48.298;11.620;2023-04-27T10:17:36;96442.13;;;14.73;50.59
46724;BME280;32463;48.298;11.620;2023-04-27T10:20:06;96446.81;;;14.93;50.20
46724;BME280;32463;48.298;11.620;2023-04-27T10:22:37;96446.59;;;16.15;47.54
46724;BME280;32463;48.298;11.620;2023-04-27T10:25:21;96440.97;;;17.35;45.32
46724;BME280;32463;48.298;11.620;2023-04-27T10:30:18;96437.50;;;17.28;44.09
46724;BME280;32463;48.298;11.620;2023-04-27T10:33:02;96440.97;;;17.35;43.17
46724;BME280;32463;48.298;11.620;2023-04-27T10:35:36;96431.38;;;17.89;43.99
46724;BME280;32463;48.298;11.620;2023-04-27T10:40:33;96436.72;;;17.34;44.72
46724;BME280;32463;48.298;11.620;2023-04-27T10:43:11;96433.63;;;17.04;44.88
46724;BME280;32463;48.298;11.620;2023-04-27T10:45:38;96433.72;;;17.37;44.78
46724;BME280;32463;48.298;11.620;2023-04-27T10:48:05;96435.00;;;16.59;44.57
46724;BME280;32463;48.298;11.620;2023-04-27T10:50:32;96430.72;;;16.86;45.08
46724;BME280;32463;48.298;11.620;2023-04-27T10:53:04;96429.75;;;17.68;44.02
46724;BME280;32463;48.298;11.620;2023-04-27T10:55:32;96422.47;;;18.09;44.37
46724;BME280;32463;48.298;11.620;2023-04-27T10:57:59;96424.50;;;17.88;43.82
46724;BME280;32463;48.298;11.620;2023-04-27T11:00:29;96427.94;;;17.88;45.00
46724;BME280;32463;48.298;11.620;2023-04-27T11:03:08;96414.38;;;16.43;44.98
46724;BME280;32463;48.298;11.620;2023-04-27T11:05:34;96418.53;;;17.20;48.92
46724;BME280;32463;48.298;11.620;2023-04-27T11:08:05;96422.34;;;17.17;45.85
46724;BME280;32463;48.298;11.620;2023-04-27T11:10:32;96418.03;;;18.16;42.08
46724;BME280;32463;48.298;11.620;2023-04-27T11:13:13;96422.13;;;19.28;40.25
46724;BME280;32463;48.298;11.620;2023-04-27T11:15:45;96423.03;;;20.28;37.51
46724;BME280;32463;48.298;11.620;2023-04-27T11:18:13;96411.88;;;20.88;36.96
46724;BME280;32463;48.298;11.620;2023-04-27T11:20:42;96409.16;;;21.84;36.15
46724;BME280;32463;48.298;11.620;2023-04-27T11:23:09;96418.38;;;22.51;34.76
46724;BME280;32463;48.298;11.620;2023-04-27T11:25:36;96418.41;;;22.16;34.76
46724;BME280;32463;48.298;11.620;2023-04-27T11:28:03;96418.47;;;22.68;33.92
46724;BME280;32463;48.298;11.620;2023-04-27T11:30:30;96407.91;;;21.98;33.42
46724;BME280;32463;48.298;11.620;2023-04-27T11:32:56;96414.59;;;22.59;35.57
46724;BME280;32463;48.298;11.620;2023-04-27T11:35:33;96413.44;;;21.55;34.26
46724;BME280;32463;48.298;11.620;2023-04-27T11:37:59;96416.84;;;22.67;33.79
46724;BME280;32463;48.298;11.620;2023-04-27T11:40:25;96414.50;;;23.06;31.98
46724;BME280;32463;48.298;11.620;2023-04-27T11:42:59;96414.59;;;22.59;33.65
46724;BME280;32463;48.298;11.620;2023-04-27T11:45:28;96415.06;;;23.08;34.09
46724;BME280;32463;48.298;11.620;2023-04-27T11:47:58;96422.41;;;23.46;31.21
46724;BME280;32463;48.298;11.620;2023-04-27T11:50:25;96406.84;;;24.11;30.22
46724;BME280;32463;48.298;11.620;2023-04-27T11:52:51;96416.16;;;23.24;31.63
46724;BME280;32463;48.298;11.620;2023-04-27T11:55:21;96412.28;;;22.51;32.20
46724;BME280;32463;48.298;11.620;2023-04-27T11:57:55;96414.63;;;21.29;33.86
46724;BME280;32463;48.298;11.620;2023-04-27T12:00:23;96429.84;;;19.23;37.43
46724;BME280;32463;48.298;11.620;2023-04-27T12:02:49;96425.38;;;20.43;36.87
46724;BME280;32463;48.298;11.620;2023-04-27T12:05:16;96423.66;;;21.51;36.17
46724;BME280;32463;48.298;11.620;2023-04-27T12:07:44;96419.03;;;22.70;33.91
46724;BME280;32463;48.298;11.620;2023-04-27T12:10:10;96415.50;;;23.90;34.04
46724;BME280;32463;48.298;11.620;2023-04-27T12:12:37;96401.75;;;24.43;33.19
46724;BME280;32463;48.298;11.620;2023-04-27T12:15:03;96406.47;;;23.01;33.13
46724;BME280;32463;48.298;11.620;2023-04-27T12:17:30;96410.22;;;22.06;33.97
46724;BME280;32463;48.298;11.620;2023-04-27T12:19:57;96401.03;;;21.44;35.82
46724;BME280;32463;48.298;11.620;2023-04-27T12:22:23;96409.63;;;21.93;33.82
46724;BME280;32463;48.298;11.620;2023-04-27T12:24:50;96407.47;;;22.48;34.12
46724;BME280;32463;48.298;11.620;2023-04-27T12:27:16;96399.84;;;21.70;33.61
46724;BME280;32463;48.298;11.620;2023-04-27T12:29:43;96399.16;;;21.86;32.41
46724;BME280;32463;48.298;11.620;2023-04-27T12:32:09;96401.28;;;23.96;32.32
46724;BME280;32463;48.298;11.620;2023-04-27T12:34:36;96408.69;;;24.28;30.39
46724;BME280;32463;48.298;11.620;2023-04-27T12:37:04;96421.09;;;23.94;32.54
46724;BME280;32463;48.298;11.620;2023-04-27T12:39:30;96413.53;;;23.52;31.76
46724;BME280;32463;48.298;11.620;2023-04-27T12:41:58;96405.63;;;23.12;32.02
46724;BME280;32463;48.298;11.620;2023-04-27T12:44:25;96407.97;;;23.25;31.33
46724;BME280;32463;48.298;11.620;2023-04-27T12:46:52;96403.59;;;23.02;31.45
46724;BME280;32463;48.298;11.620;2023-04-27T12:49:18;96403.97;;;21.77;32.45
46724;BME280;32463;48.298;11.620;2023-04-27T12:51:45;96401.81;;;21.86;33.98
46724;BME280;32463;48.298;11.620;2023-04-27T12:54:12;96400.88;;;21.27;33.47
46724;BME280;32463;48.298;11.620;2023-04-27T12:56:39;96409.44;;;21.23;34.66
46724;BME280;32463;48.298;11.620;2023-04-27T12:59:06;96409.41;;;20.93;35.09
46724;BME280;32463;48.298;11.620;2023-04-27T13:01:32;96396.47;;;23.31;32.40
46724;BME280;32463;48.298;11.620;2023-04-27T13:04:00;96398.22;;;25.20;29.54
46724;BME280;32463;48.298;11.620;2023-04-27T13:06:27;96389.94;;;25.43;29.04